createdAt,value
2019-05-02T00:01:38.268Z,71.50
2019-05-02T00:04:07.082Z,71.60
2019-05-02T00:06:37.989Z,71.70
2019-05-02T00:09:09.269Z,71.40
2019-05-02T00:11:38.295Z,71.30
2019-05-02T00:14:07.402Z,71.40
2019-05-02T00:16:36.028Z,71.40
2019-05-02T00:19:09.140Z,71.20
2019-05-02T00:21:38.182Z,71.40
2019-05-02T00:24:07.510Z,71.60
2019-05-02T00:26:36.127Z,71.50
2019-05-02T00:29:04.808Z,71.90
2019-05-02T00:31:33.778Z,71.90
2019-05-02T00:34:02.489Z,72.20
2019-05-02T00:36:31.091Z,72.30
2019-05-02T00:38:59.718Z,72.50
2019-05-02T00:41:28.326Z,72.90
2019-05-02T00:43:57.030Z,72.90
2019-05-02T00:46:25.707Z,73.00
2019-05-02T00:48:59.917Z,73.10
2019-05-02T00:51:28.986Z,73.20
2019-05-02T00:53:57.671Z,73.20
2019-05-02T00:56:26.363Z,73.10
2019-05-02T00:58:55.054Z,73.20
2019-05-02T01:01:29.369Z,73.30
2019-05-02T01:04:03.010Z,73.40
2019-05-02T01:06:31.694Z,73.50
2019-05-02T01:09:00.371Z,73.80
2019-05-02T01:11:32.180Z,74.10
2019-05-02T01:13:59.337Z,74.50
2019-05-02T01:16:27.944Z,74.80
2019-05-02T01:18:56.610Z,75.00
2019-05-02T01:21:25.313Z,75.00
2019-05-02T01:23:53.979Z,75.00
2019-05-02T01:26:29.138Z,75.40
2019-05-02T01:29:11.240Z,75.30
2019-05-02T01:31:54.572Z,75.30
2019-05-02T01:34:24.906Z,75.10
2019-05-02T01:37:11.852Z,74.90
2019-05-02T01:39:42.689Z,74.80
2019-05-02T01:42:10.970Z,74.80
2019-05-02T01:44:39.639Z,74.80
2019-05-02T01:47:08.326Z,75.00
2019-05-02T01:49:36.954Z,75.10
2019-05-02T01:52:05.750Z,75.20
2019-05-02T01:54:34.459Z,75.30
2019-05-02T01:57:04.033Z,75.50
2019-05-02T01:59:33.923Z,75.80
2019-05-02T02:02:03.903Z,75.80
2019-05-02T02:04:32.532Z,76.10
2019-05-02T02:07:01.143Z,76.10
2019-05-02T02:09:29.877Z,76.00
2019-05-02T02:11:58.592Z,75.90
2019-05-02T02:14:27.194Z,76.00
2019-05-02T02:16:55.864Z,75.90
2019-05-02T02:19:39.095Z,75.90
2019-05-02T02:22:10.182Z,76.10
2019-05-02T02:24:40.463Z,76.10
2019-05-02T02:27:09.143Z,76.30
2019-05-02T02:29:44.412Z,76.20
2019-05-02T02:32:20.299Z,76.30
2019-05-02T02:34:44.486Z,76.30
2019-05-02T02:37:15.191Z,76.40
2019-05-02T02:39:48.393Z,76.40
2019-05-02T02:42:13.784Z,76.90
2019-05-02T02:44:46.825Z,76.30
2019-05-02T02:47:18.818Z,76.20
2019-05-02T02:49:45.803Z,76.10
2019-05-02T02:52:14.524Z,76.00
2019-05-02T02:54:44.953Z,76.10
2019-05-02T02:57:22.000Z,76.10
2019-05-02T02:59:43.888Z,76.10
2019-05-02T03:02:12.610Z,76.10
2019-05-02T03:04:43.992Z,76.00
2019-05-02T03:07:11.628Z,76.10
2019-05-02T03:09:40.399Z,75.90
2019-05-02T03:12:16.688Z,75.80
2019-05-02T03:14:47.512Z,75.60
2019-05-02T03:17:20.280Z,75.40
2019-05-02T03:19:47.768Z,75.30
2019-05-02T03:22:16.432Z,75.40
2019-05-02T03:24:46.791Z,75.50
2019-05-02T03:27:16.073Z,75.70
2019-05-02T03:29:44.756Z,75.70
2019-05-02T03:32:25.981Z,75.70
2019-05-02T03:34:48.161Z,75.70
2019-05-02T03:37:14.942Z,75.80
2019-05-02T03:39:49.556Z,76.00
2019-05-02T03:42:13.961Z,76.00
2019-05-02T03:44:42.613Z,76.00
2019-05-02T03:47:11.271Z,75.80
2019-05-02T03:49:41.100Z,75.80
2019-05-02T03:52:10.720Z,75.70
2019-05-02T03:54:48.636Z,75.70
2019-05-02T03:57:09.695Z,75.50
2019-05-02T03:59:41.622Z,75.50
2019-05-02T04:02:14.228Z,75.50
2019-05-02T04:04:40.183Z,75.40
2019-05-02T04:07:09.962Z,75.40
2019-05-02T04:09:41.910Z,75.30
2019-05-02T04:12:18.990Z,75.30
2019-05-02T04:14:39.880Z,75.30
2019-05-02T04:17:10.635Z,75.10
2019-05-02T04:19:39.730Z,75.10
2019-05-02T04:22:11.752Z,74.90
2019-05-02T04:24:39.440Z,74.80
2019-05-02T04:27:08.075Z,74.80
2019-05-02T04:29:37.070Z,74.80
2019-05-02T04:32:11.288Z,74.70
2019-05-02T04:34:36.051Z,74.90
2019-05-02T04:37:04.740Z,74.80
2019-05-02T04:39:33.542Z,74.90
2019-05-02T04:42:05.366Z,74.10
2019-05-02T04:44:44.192Z,74.70
2019-05-02T04:47:10.956Z,74.70
2019-05-02T04:49:35.924Z,74.50
2019-05-02T04:52:07.798Z,74.70
2019-05-02T04:54:34.155Z,73.90
2019-05-02T04:57:02.942Z,73.70
2019-05-02T04:59:33.255Z,73.20
2019-05-02T05:02:02.000Z,72.80
2019-05-02T05:04:33.428Z,72.90
2019-05-02T05:07:01.532Z,72.30
2019-05-02T05:09:30.327Z,72.10
2019-05-02T05:12:02.522Z,71.70
2019-05-02T05:14:38.202Z,71.10
2019-05-02T05:17:01.231Z,71.20
2019-05-02T05:19:32.737Z,70.60
2019-05-02T05:22:04.745Z,70.10
2019-05-02T05:24:32.959Z,69.90
2019-05-02T05:27:02.553Z,69.20
2019-05-02T05:29:31.293Z,69.30
2019-05-02T05:32:05.438Z,68.80
2019-05-02T05:34:32.696Z,68.60
2019-05-02T05:37:03.766Z,69.10
2019-05-02T05:39:31.193Z,67.90
2019-05-02T05:42:00.476Z,67.70
2019-05-02T05:44:32.649Z,67.10
2019-05-02T05:46:59.518Z,66.90
2019-05-02T05:49:28.373Z,66.80
2019-05-02T05:52:02.156Z,66.60
2019-05-02T05:54:28.276Z,66.60
2019-05-02T05:56:57.401Z,66.20
2019-05-02T05:59:28.289Z,65.40
2019-05-02T06:01:58.025Z,65.60
2019-05-02T06:04:32.674Z,65.50
2019-05-02T06:06:59.503Z,65.10
2019-05-02T06:09:31.079Z,64.80
2019-05-02T06:11:57.874Z,64.70
2019-05-02T06:14:26.585Z,64.30
2019-05-02T06:16:55.363Z,64.40
2019-05-02T06:19:24.162Z,63.60
2019-05-02T06:21:52.840Z,63.40
2019-05-02T06:24:21.474Z,62.90
2019-05-02T06:26:51.746Z,63.20
2019-05-02T06:29:20.905Z,62.80
2019-05-02T06:31:49.828Z,62.40
2019-05-02T06:34:18.598Z,62.10
2019-05-02T06:36:47.287Z,61.70
2019-05-02T06:39:15.976Z,61.50
2019-05-02T06:41:44.672Z,60.50
2019-05-02T06:44:13.351Z,60.30
2019-05-02T06:46:41.961Z,59.80
2019-05-02T06:49:10.675Z,60.60
2019-05-02T06:51:39.351Z,59.70
2019-05-02T06:54:08.055Z,59.30
2019-05-02T06:56:36.738Z,59.50
2019-05-02T06:59:05.477Z,59.60
2019-05-02T07:01:34.597Z,59.10
2019-05-02T07:04:04.373Z,58.80
2019-05-02T07:06:42.228Z,58.40
2019-05-02T07:09:04.908Z,58.20
2019-05-02T07:11:38.856Z,57.20
2019-05-02T07:14:12.859Z,57.30
2019-05-02T07:16:38.851Z,57.30
2019-05-02T07:19:07.991Z,57.60
2019-05-02T07:21:36.758Z,57.50
2019-05-02T07:24:05.462Z,56.50
2019-05-02T07:26:34.134Z,56.80
2019-05-02T07:29:02.744Z,56.40
2019-05-02T07:31:31.428Z,56.00
2019-05-02T07:34:00.059Z,55.90
2019-05-02T07:36:31.294Z,56.10
2019-05-02T07:39:05.089Z,56.10
2019-05-02T07:41:30.322Z,55.60
2019-05-02T07:43:59.076Z,55.20
2019-05-02T07:46:27.678Z,55.10
2019-05-02T07:48:56.636Z,55.00
2019-05-02T07:51:25.494Z,54.10
2019-05-02T07:53:55.809Z,54.70
2019-05-02T07:56:24.473Z,54.30
2019-05-02T07:58:53.975Z,54.10
2019-05-02T08:01:22.612Z,53.90
2019-05-02T08:03:51.401Z,53.60
2019-05-02T08:06:20.103Z,53.30
2019-05-02T08:08:48.751Z,53.50
2019-05-02T08:11:17.500Z,53.00
2019-05-02T08:13:49.577Z,53.50
2019-05-02T08:16:16.528Z,53.10
2019-05-02T08:18:45.239Z,52.80
2019-05-02T08:21:13.952Z,53.00
2019-05-02T08:23:42.560Z,52.60
2019-05-02T08:26:16.392Z,51.70
2019-05-02T08:28:47.022Z,52.40
2019-05-02T08:31:18.858Z,52.00
2019-05-02T08:33:47.223Z,51.10
2019-05-02T08:36:15.825Z,51.20
2019-05-02T08:38:44.531Z,51.30
2019-05-02T08:41:13.132Z,51.10
2019-05-02T08:43:44.990Z,51.40
2019-05-02T08:46:14.427Z,51.40
2019-05-02T08:48:43.803Z,51.10
2019-05-02T08:51:12.694Z,49.70
2019-05-02T08:53:41.295Z,49.30
2019-05-02T08:56:09.936Z,49.20
2019-05-02T08:58:38.549Z,48.20
2019-05-02T09:01:09.311Z,48.50
2019-05-02T09:03:54.832Z,47.40
2019-05-02T09:06:07.896Z,47.00
2019-05-02T09:08:36.574Z,47.00
2019-05-02T09:11:05.221Z,47.40
2019-05-02T09:13:33.891Z,47.40
2019-05-02T09:16:05.242Z,47.90
2019-05-02T09:18:38.264Z,47.60
2019-05-02T09:21:03.274Z,47.60
2019-05-02T09:23:33.223Z,46.40
2019-05-02T09:26:02.701Z,45.90
2019-05-02T09:28:32.065Z,45.70
2019-05-02T09:31:05.017Z,46.10
2019-05-02T09:33:32.198Z,46.30
2019-05-02T09:36:02.400Z,47.40
2019-05-02T09:38:32.882Z,47.90
2019-05-02T09:41:15.291Z,48.00
2019-05-02T09:43:34.786Z,48.00
2019-05-02T09:46:02.670Z,48.10
2019-05-02T09:48:31.959Z,47.60
2019-05-02T09:51:04.470Z,46.70
2019-05-02T09:53:32.409Z,45.60
2019-05-02T09:56:02.140Z,45.60
2019-05-02T09:58:32.067Z,45.30
2019-05-02T10:01:22.368Z,45.70
2019-05-02T10:03:51.838Z,45.50
2019-05-02T10:06:22.957Z,44.00
2019-05-02T10:08:52.161Z,44.90
2019-05-02T10:11:24.418Z,44.90
2019-05-02T10:13:51.890Z,44.20
2019-05-02T10:16:23.517Z,42.90
2019-05-02T10:18:52.372Z,41.40
2019-05-02T10:21:22.840Z,41.40
2019-05-02T10:23:59.027Z,41.60
2019-05-02T10:26:24.579Z,40.90
2019-05-02T10:28:53.385Z,40.40
2019-05-02T10:31:22.243Z,41.00
2019-05-02T10:33:52.762Z,40.00
2019-05-02T10:36:23.803Z,40.30
2019-05-02T10:38:54.956Z,39.80
2019-05-02T10:41:22.398Z,40.00
2019-05-02T10:43:55.376Z,38.80
2019-05-02T10:46:27.666Z,40.00
2019-05-02T10:48:55.183Z,40.40
2019-05-02T10:51:26.187Z,41.30
2019-05-02T10:53:56.517Z,41.70
2019-05-02T10:56:25.523Z,41.70
2019-05-02T10:58:54.151Z,41.40
2019-05-02T11:01:23.715Z,41.40
2019-05-02T11:03:54.072Z,39.70
2019-05-02T11:06:22.747Z,39.20
2019-05-02T11:08:52.394Z,38.90
2019-05-02T11:11:23.986Z,39.00
2019-05-02T11:14:00.868Z,38.40
2019-05-02T11:16:43.959Z,37.20
2019-05-02T11:19:26.389Z,38.70
2019-05-02T11:21:58.783Z,39.40
2019-05-02T11:24:25.437Z,38.00
2019-05-02T11:26:54.178Z,38.70
2019-05-02T11:29:22.953Z,37.50
2019-05-02T11:31:52.193Z,37.50
2019-05-02T11:34:22.046Z,37.30
2019-05-02T11:36:52.675Z,38.20
2019-05-02T11:39:30.691Z,36.60
2019-05-02T11:41:52.749Z,36.40
2019-05-02T11:44:22.610Z,36.00
2019-05-02T11:46:52.280Z,35.50
2019-05-02T11:49:22.790Z,35.80
2019-05-02T11:51:55.742Z,34.30
2019-05-02T11:54:22.669Z,34.30
2019-05-02T11:56:53.457Z,35.00
2019-05-02T11:59:27.601Z,34.40
2019-05-02T12:02:09.376Z,35.20
2019-05-02T12:04:36.214Z,36.30
2019-05-02T12:07:05.059Z,37.70
2019-05-02T12:09:33.883Z,38.20
2019-05-02T12:12:02.660Z,37.60
2019-05-02T12:14:32.803Z,37.10
2019-05-02T12:17:02.623Z,37.00
2019-05-02T12:19:32.232Z,36.90
2019-05-02T12:22:02.591Z,37.60
2019-05-02T12:24:31.986Z,37.40
2019-05-02T12:27:02.558Z,36.90
2019-05-02T12:29:33.380Z,37.10
2019-05-02T12:32:02.641Z,36.90
2019-05-02T12:34:32.532Z,35.40
2019-05-02T12:37:01.749Z,35.70
2019-05-02T12:39:31.687Z,35.10
2019-05-02T12:42:02.669Z,34.50
2019-05-02T12:44:31.836Z,31.60
2019-05-02T12:47:02.500Z,29.80
2019-05-02T12:49:32.453Z,28.90
2019-05-02T12:52:01.750Z,29.00
2019-05-02T12:54:32.418Z,28.40
2019-05-02T12:57:02.069Z,28.30
2019-05-02T12:59:32.186Z,27.90
2019-05-02T13:02:02.682Z,25.80
2019-05-02T13:04:32.291Z,26.10
2019-05-02T13:07:02.148Z,27.20
2019-05-02T13:09:32.587Z,27.50
2019-05-02T13:12:06.159Z,28.50
2019-05-02T13:14:34.864Z,29.50
2019-05-02T13:17:05.790Z,29.40
2019-05-02T13:19:40.596Z,28.40
2019-05-02T13:22:17.992Z,26.50
2019-05-02T13:24:54.773Z,24.70
2019-05-02T13:27:22.834Z,23.70
2019-05-02T13:29:52.507Z,22.40
2019-05-02T13:32:25.880Z,21.70
2019-05-02T13:35:15.563Z,21.40
2019-05-02T13:37:45.866Z,21.90
2019-05-02T13:40:32.214Z,21.90
2019-05-02T13:43:01.830Z,22.50
2019-05-02T13:45:35.025Z,23.00
2019-05-02T13:48:03.747Z,22.90
2019-05-02T13:50:32.399Z,24.30
2019-05-02T13:53:02.627Z,25.60
2019-05-02T13:55:45.374Z,27.20
2019-05-02T13:58:14.121Z,28.80
2019-05-02T14:00:46.516Z,30.20
2019-05-02T14:03:15.333Z,30.40
2019-05-02T14:05:49.309Z,30.00
2019-05-02T14:08:27.477Z,29.10
2019-05-02T14:10:58.675Z,28.80
2019-05-02T14:13:27.352Z,29.60
2019-05-02T14:15:55.991Z,30.90
2019-05-02T14:18:29.468Z,31.90
2019-05-02T14:21:02.780Z,31.20
2019-05-02T14:23:31.985Z,31.40
2019-05-02T14:26:02.046Z,31.90
2019-05-02T14:28:34.368Z,32.50
2019-05-02T14:31:02.205Z,33.00
2019-05-02T14:33:33.078Z,31.60
2019-05-02T14:36:01.926Z,30.50
2019-05-02T14:38:32.164Z,29.70
2019-05-02T14:41:12.417Z,29.40
2019-05-02T14:43:53.216Z,29.50
2019-05-02T14:46:22.694Z,29.50
2019-05-02T14:48:52.229Z,30.00
2019-05-02T14:51:27.596Z,29.60
2019-05-02T14:54:03.809Z,29.60
2019-05-02T14:56:47.868Z,29.80
2019-05-02T14:59:22.779Z,30.20
2019-05-02T15:01:57.911Z,30.00
2019-05-02T15:04:26.844Z,30.00
2019-05-02T15:06:55.653Z,29.70
2019-05-02T15:09:26.901Z,29.90
2019-05-02T15:12:03.050Z,29.70
2019-05-02T15:14:33.241Z,30.50
2019-05-02T15:17:02.707Z,30.40
2019-05-02T15:19:32.954Z,30.70
2019-05-02T15:22:02.328Z,31.80
2019-05-02T15:24:33.272Z,31.00
2019-05-02T15:27:03.947Z,31.70
2019-05-02T15:29:32.294Z,31.00
2019-05-02T15:32:19.108Z,31.30
2019-05-02T15:35:04.131Z,30.40
2019-05-02T15:37:35.716Z,30.90
2019-05-02T15:42:35.217Z,30.60
2019-05-02T15:45:05.817Z,30.50
2019-05-02T15:47:37.048Z,30.70
2019-05-02T15:50:05.995Z,30.70
2019-05-02T15:52:36.242Z,31.50
2019-05-02T15:55:06.619Z,31.10
2019-05-02T15:57:43.063Z,31.20
2019-05-02T16:00:17.205Z,31.20
2019-05-02T16:02:42.040Z,31.20
2019-05-02T16:05:11.888Z,31.20
2019-05-02T16:07:44.936Z,31.50
2019-05-02T16:10:14.427Z,31.20
2019-05-02T16:12:44.666Z,31.40
2019-05-02T16:15:21.518Z,31.90
2019-05-02T16:17:44.467Z,32.00
2019-05-02T16:20:15.620Z,32.30
2019-05-02T16:22:49.633Z,31.90
2019-05-02T16:25:15.020Z,31.10
2019-05-02T16:27:45.352Z,31.70
2019-05-02T16:30:16.814Z,31.50
2019-05-02T16:32:47.115Z,32.10
2019-05-02T16:35:17.995Z,32.50
2019-05-02T16:37:51.339Z,32.60
2019-05-02T16:40:23.869Z,32.90
2019-05-02T16:42:47.831Z,32.90
2019-05-02T16:45:17.598Z,33.30
2019-05-02T16:47:49.639Z,33.40
2019-05-02T16:50:18.741Z,33.10
2019-05-02T16:52:47.827Z,32.70
2019-05-02T16:55:20.795Z,32.90
2019-05-02T16:57:47.798Z,32.80
2019-05-02T17:00:20.070Z,33.30
2019-05-02T17:02:48.666Z,33.10
2019-05-02T17:05:17.709Z,33.30
2019-05-02T17:07:52.858Z,33.70
2019-05-02T17:10:42.203Z,33.80
2019-05-02T17:13:12.611Z,34.20
2019-05-02T17:15:42.774Z,34.30
2019-05-02T17:18:13.130Z,34.60
2019-05-02T17:20:41.949Z,34.80
2019-05-02T17:23:12.686Z,35.10
2019-05-02T17:25:41.628Z,35.40
2019-05-02T17:28:12.782Z,35.70
2019-05-02T17:30:43.003Z,35.50
2019-05-02T17:33:12.800Z,37.30
2019-05-02T17:35:49.209Z,36.90
2019-05-02T17:38:12.188Z,37.30
2019-05-02T17:40:42.195Z,37.50
2019-05-02T17:43:10.994Z,37.80
2019-05-02T17:45:40.260Z,38.00
2019-05-02T17:48:15.899Z,39.10
2019-05-02T17:50:49.393Z,40.20
2019-05-02T17:53:17.696Z,40.40
2019-05-02T17:55:46.440Z,40.60
2019-05-02T17:58:16.660Z,40.70
2019-05-02T18:00:54.381Z,41.10
2019-05-02T18:03:24.083Z,41.00
2019-05-02T18:05:52.774Z,42.50
2019-05-02T18:08:21.845Z,42.70
2019-05-02T18:10:56.093Z,43.20
2019-05-02T18:13:22.670Z,42.80
2019-05-02T18:15:53.244Z,43.50
2019-05-02T18:18:22.155Z,44.80
2019-05-02T18:20:52.722Z,44.50
2019-05-02T18:23:25.738Z,44.80
2019-05-02T18:25:52.618Z,46.10
2019-05-02T18:28:25.928Z,46.80
2019-05-02T18:30:52.471Z,47.50
2019-05-02T18:33:22.678Z,48.70
2019-05-02T18:35:52.601Z,48.50
2019-05-02T18:38:22.425Z,50.10
2019-05-02T18:40:52.416Z,50.40
2019-05-02T18:43:22.252Z,50.20
2019-05-02T18:45:51.606Z,50.60
2019-05-02T18:48:21.891Z,51.20
2019-05-02T18:50:52.433Z,51.50
2019-05-02T18:53:24.088Z,51.40
2019-05-02T18:55:52.123Z,51.90
2019-05-02T18:58:22.610Z,51.50
2019-05-02T19:00:51.953Z,52.20
2019-05-02T19:03:23.034Z,51.80
2019-05-02T19:05:57.068Z,51.90
2019-05-02T19:08:29.093Z,52.30
2019-05-02T19:11:04.378Z,53.90
2019-05-02T19:13:23.127Z,53.40
2019-05-02T19:15:54.817Z,53.70
2019-05-02T19:18:23.523Z,53.80
2019-05-02T19:20:57.590Z,55.00
2019-05-02T19:23:25.556Z,54.40
2019-05-02T19:25:54.222Z,54.90
2019-05-02T19:28:36.749Z,55.60
2019-05-02T19:31:03.078Z,55.90
2019-05-02T19:33:31.908Z,55.20
2019-05-02T19:36:02.654Z,56.20
2019-05-02T19:38:32.429Z,56.40
2019-05-02T19:41:05.414Z,56.70
2019-05-02T19:43:34.650Z,57.10
2019-05-02T19:46:02.338Z,57.10
2019-05-02T19:48:33.134Z,56.90
2019-05-02T19:51:02.480Z,57.40
2019-05-02T19:53:32.483Z,58.10
2019-05-02T19:56:02.936Z,58.40
2019-05-02T19:58:36.613Z,58.10
2019-05-02T20:01:03.874Z,58.20
2019-05-02T20:03:32.544Z,58.30
2019-05-02T20:06:05.805Z,58.40
2019-05-02T20:08:32.563Z,58.50
2019-05-02T20:11:02.141Z,58.40
2019-05-02T20:13:32.697Z,58.80
2019-05-02T20:16:12.049Z,58.50
2019-05-02T20:18:43.981Z,59.70
2019-05-02T20:21:25.912Z,60.00
2019-05-02T20:23:46.160Z,60.30
2019-05-02T20:26:15.579Z,60.30
2019-05-02T20:28:45.196Z,60.90
2019-05-02T20:31:13.975Z,60.70
2019-05-02T20:33:43.027Z,61.30
2019-05-02T20:36:12.320Z,61.90
2019-05-02T20:38:41.746Z,62.50
2019-05-02T20:41:12.553Z,62.60
2019-05-02T20:43:44.676Z,62.70
2019-05-02T20:46:12.175Z,62.50
2019-05-02T20:48:41.882Z,62.10
2019-05-02T20:51:12.132Z,62.10
2019-05-02T20:53:42.051Z,63.00
2019-05-02T20:56:12.383Z,63.00
2019-05-02T20:58:41.977Z,62.00
2019-05-02T21:01:12.481Z,61.90
2019-05-02T21:03:42.717Z,61.90
2019-05-02T21:06:13.257Z,62.30
2019-05-02T21:08:46.569Z,62.30
2019-05-02T21:11:15.187Z,62.60
2019-05-02T21:13:43.907Z,63.80
2019-05-02T21:16:12.583Z,63.90
2019-05-02T21:18:42.269Z,63.50
2019-05-02T21:21:12.682Z,63.80
2019-05-02T21:23:46.629Z,63.90
2019-05-02T21:26:11.896Z,64.00
2019-05-02T21:28:42.649Z,64.10
2019-05-02T21:31:12.136Z,64.50
2019-05-02T21:33:42.749Z,63.90
2019-05-02T21:36:12.134Z,65.00
2019-05-02T21:38:42.788Z,65.80
2019-05-02T21:41:11.695Z,65.80
2019-05-02T21:43:42.309Z,65.40
2019-05-02T21:46:10.788Z,65.80
2019-05-02T21:48:39.534Z,65.60
2019-05-02T21:51:24.906Z,65.70
2019-05-02T21:54:02.885Z,66.20
2019-05-02T21:56:49.067Z,66.90
2019-05-02T21:59:17.662Z,67.80
2019-05-02T22:01:51.903Z,67.80
2019-05-02T22:04:22.432Z,67.70
2019-05-02T22:06:52.230Z,67.70
2019-05-02T22:09:23.131Z,68.10
2019-05-02T22:11:51.976Z,68.00
2019-05-02T22:14:22.287Z,67.80
2019-05-02T22:16:53.175Z,67.90
2019-05-02T22:19:21.931Z,67.90
2019-05-02T22:21:52.238Z,67.00
2019-05-02T22:24:20.962Z,67.70
2019-05-02T22:26:49.628Z,67.30
2019-05-02T22:29:18.269Z,67.50
2019-05-02T22:31:46.960Z,67.20
2019-05-02T22:34:15.674Z,66.80
2019-05-02T22:36:44.382Z,66.50
2019-05-02T22:39:31.671Z,65.60
2019-05-02T22:42:04.225Z,65.40
2019-05-02T22:44:32.483Z,64.20
2019-05-02T22:47:01.347Z,65.20
2019-05-02T22:49:31.701Z,65.80
2019-05-02T22:52:00.383Z,65.20
2019-05-02T22:54:33.303Z,66.10
2019-05-02T22:56:59.519Z,66.50
2019-05-02T22:59:28.519Z,66.80
2019-05-02T23:01:58.104Z,66.80
2019-05-02T23:04:26.811Z,67.10
2019-05-02T23:06:55.453Z,67.20
2019-05-02T23:09:24.086Z,67.40
2019-05-02T23:11:52.722Z,67.20
2019-05-02T23:14:22.098Z,67.00
2019-05-02T23:16:52.854Z,67.30
2019-05-02T23:19:23.039Z,67.20
2019-05-02T23:21:52.658Z,67.20
2019-05-02T23:24:35.960Z,67.20
2019-05-02T23:26:57.899Z,66.90
2019-05-02T23:29:26.531Z,67.20
2019-05-02T23:31:55.207Z,66.00
2019-05-02T23:34:23.819Z,66.10
2019-05-02T23:36:52.466Z,65.40
2019-05-02T23:39:21.113Z,65.10
2019-05-02T23:41:49.751Z,64.90
2019-05-02T23:44:18.345Z,64.60
2019-05-02T23:46:47.075Z,64.60
2019-05-02T23:49:15.666Z,64.40
2019-05-02T23:51:44.304Z,64.30
2019-05-02T23:54:13.193Z,64.30
2019-05-02T23:56:43.089Z,64.30
2019-05-02T23:59:12.384Z,64.20
